Time;durP1;ratioP1;P1;durP2;ratioP2;P2;SDS_P1;SDS_P2;PMS_P1;PMS_P2;Temp;Humidity;BMP_temperature;BMP_pressure;BME280_temperature;BME280_humidity;BME280_pressure;Samples;Min_cycle;Max_cycle;Signal;HPM_P1;HPM_P2
2023/11/08 00:01:30;;;;;;;;;;;;;;;14.32;nan;100999.22;5065665;28;20058;-89
2023/11/08 00:03:56;;;;;;;;;;;;;;;14.37;nan;101001.16;5066842;28;21358;-89
2023/11/08 00:06:21;;;;;;;;;;;;;;;14.42;nan;101001.97;5063045;28;19927;-88
2023/11/08 00:08:50;;;;;;;;;;;;;;;14.43;nan;100998.22;5072260;28;20530;-89
2023/11/08 00:11:16;;;;;;;;;;;;;;;14.45;nan;100998.75;5072634;28;19920;-89
2023/11/08 00:13:41;;;;;;;;;;;;;;;14.46;nan;101004.94;5068289;28;19931;-89
2023/11/08 00:16:07;;;;;;;;;;;;;;;14.46;nan;101007.66;5071454;28;19923;-89
2023/11/08 00:18:32;;;;;;;;;;;;;;;14.44;nan;101010.63;5064018;28;19923;-90
2023/11/08 00:20:57;;;;;;;;;;;;;;;14.44;nan;101007.09;5063207;28;19931;-90
2023/11/08 00:23:23;;;;;;;;;;;;;;;14.40;nan;101008.69;5064358;28;19917;-89
2023/11/08 00:25:48;;;;;;;;;;;;;;;14.37;nan;101006.53;5067581;28;19916;-90
2023/11/08 00:28:14;;;;;;;;;;;;;;;14.32;nan;101004.63;5066493;28;19931;-90
2023/11/08 00:30:40;;;;;;;;;;;;;;;14.35;nan;101008.66;5069221;28;19920;-90
2023/11/08 00:33:05;;;;;;;;;;;;;;;14.31;nan;101012.97;5062790;28;19920;-90
2023/11/08 00:35:31;;;;;;;;;;;;;;;14.28;nan;101014.31;5068319;28;19958;-90
2023/11/08 00:37:56;;;;;;;;;;;;;;;14.28;nan;101013.50;5068194;28;19924;-90
2023/11/08 00:40:22;;;;;;;;;;;;;;;14.26;nan;101013.78;5068892;28;20351;-89
2023/11/08 00:42:48;;;;;;;;;;;;;;;14.27;nan;101010.00;5075082;28;19921;-89
2023/11/08 00:45:13;;;;;;;;;;;;;;;14.27;nan;101009.19;5070448;28;19917;-90
2023/11/08 00:47:38;;;;;;;;;;;;;;;14.29;nan;101020.53;5070480;28;19965;-88
2023/11/08 00:50:04;;;;;;;;;;;;;;;14.29;nan;101015.13;5067711;28;19917;-89
2023/11/08 00:52:30;;;;;;;;;;;;;;;14.31;nan;101011.09;5072516;28;19921;-89
2023/11/08 00:54:55;;;;;;;;;;;;;;;14.31;nan;101012.97;5069368;28;19920;-88
2023/11/08 00:57:20;;;;;;;;;;;;;;;14.35;nan;101009.47;5068376;28;19924;-89
2023/11/08 00:59:46;;;;;;;;;;;;;;;14.39;nan;101007.06;5068365;28;19929;-89
2023/11/08 01:02:11;;;;;;;;;;;;;;;14.41;nan;101008.44;5065554;28;19924;-89
2023/11/08 01:04:36;;;;;;;;;;;;;;;14.40;nan;101001.41;5067686;28;19916;-88
2023/11/08 01:07:02;;;;;;;;;;;;;;;14.42;nan;101006.53;5080709;28;19917;-89
2023/11/08 01:09:27;;;;;;;;;;;;;;;14.37;nan;101007.34;5061589;28;19925;-89
2023/11/08 01:11:54;;;;;;;;;;;;;;;14.33;nan;101010.81;5069211;28;19920;-89
2023/11/08 01:14:20;;;;;;;;;;;;;;;14.30;nan;101012.16;5066708;28;20408;-89
2023/11/08 01:16:46;;;;;;;;;;;;;;;14.28;nan;101008.13;5067823;28;19955;-89
2023/11/08 01:19:11;;;;;;;;;;;;;;;14.24;nan;101015.94;5070440;28;19955;-90
2023/11/08 01:21:36;;;;;;;;;;;;;;;14.26;nan;101015.66;5067092;28;19952;-89
2023/11/08 01:24:02;;;;;;;;;;;;;;;14.27;nan;101012.69;5067165;28;20464;-89
2023/11/08 01:26:27;;;;;;;;;;;;;;;14.24;nan;101001.66;5063962;28;19920;-89
2023/11/08 01:28:53;;;;;;;;;;;;;;;14.21;nan;101006.50;5069382;28;20582;-89
2023/11/08 01:31:18;;;;;;;;;;;;;;;14.22;nan;101012.69;5063953;28;19921;-89
2023/11/08 01:33:43;;;;;;;;;;;;;;;14.22;nan;101007.31;5061448;28;19946;-88
2023/11/08 01:36:09;;;;;;;;;;;;;;;14.19;nan;101010.53;5064187;28;19946;-89
2023/11/08 01:38:35;;;;;;;;;;;;;;;14.18;nan;101008.88;5068645;28;19916;-89
2023/11/08 01:41:01;;;;;;;;;;;;;;;14.17;nan;101010.78;5066627;28;19965;-89
2023/11/08 01:43:30;;;;;;;;;;;;;;;14.18;nan;101004.34;5060556;28;19917;-90
2023/11/08 01:46:06;;;;;;;;;;;;;;;14.14;nan;101003.22;5063266;28;19974;-90
2023/11/08 01:48:32;;;;;;;;;;;;;;;14.11;nan;100998.38;5070104;28;20315;-89
2023/11/08 01:50:57;;;;;;;;;;;;;;;14.09;nan;101002.41;5065278;28;19931;-88
2023/11/08 01:53:23;;;;;;;;;;;;;;;14.06;nan;100997.56;5069210;28;19920;-88
2023/11/08 01:55:48;;;;;;;;;;;;;;;14.06;nan;101006.44;5061913;28;19924;-89
2023/11/08 01:58:14;;;;;;;;;;;;;;;14.03;nan;101001.59;5066432;28;19925;-89
2023/11/08 02:00:40;;;;;;;;;;;;;;;14.06;nan;101008.34;5066602;28;19927;-89
2023/11/08 02:03:06;;;;;;;;;;;;;;;14.04;nan;101008.59;5065437;28;20007;-89
2023/11/08 02:05:33;;;;;;;;;;;;;;;14.05;nan;101004.84;5068220;28;20024;-89
2023/11/08 02:07:58;;;;;;;;;;;;;;;14.04;nan;101002.41;5069655;28;19974;-89
2023/11/08 02:10:23;;;;;;;;;;;;;;;14.05;nan;101001.34;5064548;28;19916;-89
2023/11/08 02:12:50;;;;;;;;;;;;;;;14.05;nan;101002.13;5071648;28;19927;-89
2023/11/08 02:15:16;;;;;;;;;;;;;;;14.02;nan;100994.59;5064757;28;19923;-89
2023/11/08 02:17:42;;;;;;;;;;;;;;;14.03;nan;101000.78;5070438;28;19917;-89
2023/11/08 02:20:08;;;;;;;;;;;;;;;14.03;nan;101001.59;5067090;28;19968;-89
2023/11/08 02:22:34;;;;;;;;;;;;;;;14.04;nan;100997.03;5068210;28;19982;-89
2023/11/08 02:24:59;;;;;;;;;;;;;;;14.03;nan;101001.59;5072098;28;19964;-89
2023/11/08 02:27:25;;;;;;;;;;;;;;;14.01;nan;101009.13;5065717;28;19923;-89
2023/11/08 02:29:50;;;;;;;;;;;;;;;13.99;nan;101005.88;5068738;28;19916;-88
2023/11/08 02:32:15;;;;;;;;;;;;;;;13.97;nan;100999.94;5075757;28;20015;-89
2023/11/08 02:34:41;;;;;;;;;;;;;;;13.97;nan;101002.63;5069345;28;19938;-89
2023/11/08 02:37:07;;;;;;;;;;;;;;;13.96;nan;101005.59;5071086;28;19924;-89
2023/11/08 02:39:32;;;;;;;;;;;;;;;13.95;nan;101007.47;5075928;28;20014;-89
2023/11/08 02:41:58;;;;;;;;;;;;;;;13.93;nan;101004.25;5069849;28;20019;-89
2023/11/08 02:44:26;;;;;;;;;;;;;;;13.92;nan;101010.72;5070810;28;19956;-89
2023/11/08 02:46:51;;;;;;;;;;;;;;;13.94;nan;101008.56;5067407;28;19917;-88
2023/11/08 02:49:16;;;;;;;;;;;;;;;13.90;nan;101000.19;5073206;28;19965;-89
2023/11/08 02:51:43;;;;;;;;;;;;;;;13.87;nan;100998.03;5070328;28;19923;-89
2023/11/08 02:54:08;;;;;;;;;;;;;;;13.83;nan;100993.44;5068737;28;19933;-90
2023/11/08 02:56:37;;;;;;;;;;;;;;;13.83;nan;100996.13;5070344;28;19916;-90
2023/11/08 02:59:02;;;;;;;;;;;;;;;13.80;nan;100992.06;5064583;28;19917;-89
2023/11/08 03:01:29;;;;;;;;;;;;;;;13.77;nan;100991.78;5069473;28;20295;-88
2023/11/08 03:03:55;;;;;;;;;;;;;;;13.71;nan;100987.47;5072070;28;19935;-89
2023/11/08 03:06:20;;;;;;;;;;;;;;;13.67;nan;100994.44;5061757;28;19917;-89
2023/11/08 03:08:46;;;;;;;;;;;;;;;13.65;nan;100997.41;5059727;28;20865;-89
2023/11/08 03:11:11;;;;;;;;;;;;;;;13.63;nan;100996.03;5073617;28;19934;-89
2023/11/08 03:13:36;;;;;;;;;;;;;;;13.58;nan;100994.94;5066166;28;20383;-90
2023/11/08 03:16:02;;;;;;;;;;;;;;;13.56;nan;100989.00;5067298;28;19931;-89
2023/11/08 03:18:27;;;;;;;;;;;;;;;13.52;nan;100987.91;5069673;28;19917;-89
2023/11/08 03:20:53;;;;;;;;;;;;;;;13.52;nan;100990.59;5065997;28;20053;-89
2023/11/08 03:23:18;;;;;;;;;;;;;;;13.51;nan;100994.38;5071677;28;19924;-89
2023/11/08 03:25:43;;;;;;;;;;;;;;;13.51;nan;100993.56;5067526;28;19931;-89
2023/11/08 03:28:09;;;;;;;;;;;;;;;13.50;nan;100992.75;5069126;28;19923;-89
2023/11/08 03:30:36;;;;;;;;;;;;;;;13.51;nan;100988.19;5063916;28;19916;-90
2023/11/08 03:33:01;;;;;;;;;;;;;;;13.52;nan;100997.88;5067819;28;20427;-89
2023/11/08 03:35:26;;;;;;;;;;;;;;;13.51;nan;100993.56;5070764;28;20007;-89
2023/11/08 03:37:52;;;;;;;;;;;;;;;13.48;nan;100992.22;5073629;28;19951;-88
2023/11/08 03:40:17;;;;;;;;;;;;;;;13.47;nan;100998.66;5070721;28;19965;-89
2023/11/08 03:42:44;;;;;;;;;;;;;;;13.44;nan;100999.16;5064453;28;20011;-90
2023/11/08 03:45:10;;;;;;;;;;;;;;;13.43;nan;101002.94;5069165;28;19916;-89
2023/11/08 03:47:36;;;;;;;;;;;;;;;13.45;nan;100999.97;5067637;28;19924;-89
2023/11/08 03:50:01;;;;;;;;;;;;;;;13.43;nan;101002.13;5072714;28;20041;-89
2023/11/08 03:52:27;;;;;;;;;;;;;;;13.41;nan;101002.38;5064838;28;20012;-90
2023/11/08 03:54:52;;;;;;;;;;;;;;;13.38;nan;101002.91;5073226;28;19916;-90
2023/11/08 03:57:19;;;;;;;;;;;;;;;13.32;nan;101001.25;5068183;28;19963;-90
2023/11/08 03:59:45;;;;;;;;;;;;;;;13.34;nan;100999.13;5067735;28;19924;-90
2023/11/08 04:02:10;;;;;;;;;;;;;;;13.32;nan;101009.34;5068358;28;20374;-89
2023/11/08 04:04:36;;;;;;;;;;;;;;;13.32;nan;101003.94;5068042;28;19920;-90
2023/11/08 04:07:01;;;;;;;;;;;;;;;13.32;nan;101006.66;5067996;28;20541;-89
2023/11/08 04:09:27;;;;;;;;;;;;;;;13.31;nan;101005.03;5071054;28;20708;-90
2023/11/08 04:11:52;;;;;;;;;;;;;;;13.25;nan;101006.03;5072709;28;20380;-89
2023/11/08 04:14:17;;;;;;;;;;;;;;;13.19;nan;101007.09;5069861;28;20610;-89
2023/11/08 04:16:43;;;;;;;;;;;;;;;13.20;nan;101003.31;5070930;28;20007;-90
2023/11/08 04:19:08;;;;;;;;;;;;;;;13.16;nan;101003.00;5068097;28;19985;-90
2023/11/08 04:21:34;;;;;;;;;;;;;;;13.11;nan;101007.56;5068842;28;19971;-90
2023/11/08 04:23:59;;;;;;;;;;;;;;;13.05;nan;101000.50;5065841;28;19940;-90
2023/11/08 04:26:24;;;;;;;;;;;;;;;13.00;nan;100995.91;5063813;28;19928;-89
2023/11/08 04:28:51;;;;;;;;;;;;;;;12.93;nan;100989.94;5062078;28;19917;-90
2023/11/08 04:31:16;;;;;;;;;;;;;;;12.90;nan;100993.13;5065705;28;19916;-90
2023/11/08 04:33:42;;;;;;;;;;;;;;;12.87;nan;100993.63;5072413;28;20002;-90
2023/11/08 04:36:09;;;;;;;;;;;;;;;12.85;nan;100987.72;5067600;28;20554;-90
2023/11/08 04:38:34;;;;;;;;;;;;;;;12.83;nan;100982.59;5068446;28;19920;-90
2023/11/08 04:40:59;;;;;;;;;;;;;;;12.81;nan;100979.34;5071264;28;20003;-90
2023/11/08 04:43:25;;;;;;;;;;;;;;;12.79;nan;100986.88;5068594;28;19917;-90
2023/11/08 04:45:50;;;;;;;;;;;;;;;12.81;nan;100986.59;5070322;28;19927;-90
2023/11/08 04:48:15;;;;;;;;;;;;;;;12.81;nan;100989.28;5071460;28;19923;-90
2023/11/08 04:50:41;;;;;;;;;;;;;;;12.82;nan;100989.03;5073483;28;19916;-89
2023/11/08 04:53:06;;;;;;;;;;;;;;;12.81;nan;100997.38;5071688;28;19920;-89
2023/11/08 04:55:31;;;;;;;;;;;;;;;12.81;nan;101008.13;5071123;28;20004;-90
2023/11/08 04:57:57;;;;;;;;;;;;;;;12.77;nan;101009.69;5069384;28;20057;-90
2023/11/08 05:00:22;;;;;;;;;;;;;;;12.74;nan;101010.19;5073948;28;19954;-90
2023/11/08 05:02:47;;;;;;;;;;;;;;;12.67;nan;101011.22;5067150;28;19920;-90
2023/11/08 05:05:15;;;;;;;;;;;;;;;12.69;nan;101013.66;5066510;28;19917;-90
2023/11/08 05:07:42;;;;;;;;;;;;;;;12.73;nan;101013.94;5066214;28;19925;-90
2023/11/08 05:10:09;;;;;;;;;;;;;;;12.69;nan;101002.91;5070848;28;19928;-90
2023/11/08 05:12:34;;;;;;;;;;;;;;;12.68;nan;101002.09;5067991;28;19990;-90
2023/11/08 05:14:59;;;;;;;;;;;;;;;12.69;nan;101001.03;5066719;28;20515;-90
2023/11/08 05:17:25;;;;;;;;;;;;;;;12.70;nan;100996.44;5071231;28;19991;-90
2023/11/08 05:19:50;;;;;;;;;;;;;;;12.78;nan;100996.00;5063314;28;19947;-89
2023/11/08 05:22:15;;;;;;;;;;;;;;;12.80;nan;100991.19;5067396;28;19970;-89
2023/11/08 05:24:43;;;;;;;;;;;;;;;12.90;nan;100996.63;5065933;28;19923;-90
2023/11/08 05:27:11;;;;;;;;;;;;;;;12.95;nan;100985.91;5068351;28;20528;-89
2023/11/08 05:29:36;;;;;;;;;;;;;;;12.97;nan;101002.59;5066936;28;19975;-89
2023/11/08 05:32:02;;;;;;;;;;;;;;;13.03;nan;101000.75;5065743;28;19917;-90
2023/11/08 05:34:27;;;;;;;;;;;;;;;13.05;nan;100995.94;5067805;28;19924;-89
2023/11/08 05:36:53;;;;;;;;;;;;;;;13.06;nan;100997.53;5067657;28;20016;-89
2023/11/08 05:39:22;;;;;;;;;;;;;;;13.06;nan;100994.03;5066254;28;19952;-89
2023/11/08 05:41:50;;;;;;;;;;;;;;;13.04;nan;100993.50;5066125;28;19940;-89
2023/11/08 05:44:16;;;;;;;;;;;;;;;13.06;nan;101002.94;5065420;28;19943;-90
2023/11/08 05:46:41;;;;;;;;;;;;;;;13.10;nan;100995.94;5060467;28;19924;-90
2023/11/08 05:49:08;;;;;;;;;;;;;;;13.10;nan;100985.19;5065779;28;20292;-90
2023/11/08 05:51:33;;;;;;;;;;;;;;;13.11;nan;100989.53;5067969;28;19917;-89
2023/11/08 05:53:59;;;;;;;;;;;;;;;13.13;nan;100994.66;5067709;28;20593;-90
2023/11/08 05:56:24;;;;;;;;;;;;;;;13.16;nan;100992.25;5065756;28;19924;-90
2023/11/08 05:58:49;;;;;;;;;;;;;;;13.20;nan;101001.44;5064661;28;19924;-90
2023/11/08 06:01:15;;;;;;;;;;;;;;;13.21;nan;100999.56;5069267;28;19923;-90
2023/11/08 06:03:40;;;;;;;;;;;;;;;13.24;nan;101002.53;5069492;28;19924;-90
2023/11/08 06:06:06;;;;;;;;;;;;;;;13.21;nan;101007.63;5067606;28;20581;-90
2023/11/08 06:08:31;;;;;;;;;;;;;;;13.23;nan;101006.31;5067297;28;20315;-90
2023/11/08 06:10:57;;;;;;;;;;;;;;;13.21;nan;101007.63;5064299;28;20047;-90
2023/11/08 06:13:22;;;;;;;;;;;;;;;13.22;nan;101011.94;5066176;28;19921;-91
2023/11/08 06:15:48;;;;;;;;;;;;;;;13.18;nan;101014.34;5065731;28;19975;-91
2023/11/08 06:18:14;;;;;;;;;;;;;;;13.18;nan;101016.22;5068417;28;19917;-90
2023/11/08 06:20:39;;;;;;;;;;;;;;;13.20;nan;101020.28;5068358;28;19931;-90
2023/11/08 06:23:05;;;;;;;;;;;;;;;13.22;nan;101017.31;5066877;28;20273;-90
2023/11/08 06:25:31;;;;;;;;;;;;;;;13.22;nan;101022.72;5063829;28;19943;-90
2023/11/08 06:27:58;;;;;;;;;;;;;;;13.24;nan;101021.38;5065722;28;20455;-90
2023/11/08 06:30:23;;;;;;;;;;;;;;;13.23;nan;101019.75;5067049;28;19925;-90
2023/11/08 06:32:48;;;;;;;;;;;;;;;13.21;nan;101021.09;5070490;28;20441;-88
2023/11/08 06:35:14;;;;;;;;;;;;;;;13.25;nan;101020.31;5064419;28;19921;-89
2023/11/08 06:37:40;;;;;;;;;;;;;;;13.27;nan;101023.53;5069757;28;19920;-89
2023/11/08 06:40:09;;;;;;;;;;;;;;;13.32;nan;101024.66;5068875;28;19923;-88
2023/11/08 06:42:34;;;;;;;;;;;;;;;13.35;nan;101026.84;5069036;28;19974;-89
2023/11/08 06:45:00;;;;;;;;;;;;;;;13.40;nan;101018.78;5067248;28;19916;-88
2023/11/08 06:47:26;;;;;;;;;;;;;;;13.46;nan;101028.50;5072916;28;19955;-89
2023/11/08 06:49:51;;;;;;;;;;;;;;;13.46;nan;101023.13;5066060;28;20006;-89
2023/11/08 06:52:17;;;;;;;;;;;;;;;13.52;nan;101024.78;5070587;28;20299;-89
2023/11/08 06:54:42;;;;;;;;;;;;;;;13.56;nan;101029.38;5073506;28;19924;-90
2023/11/08 06:57:07;;;;;;;;;;;;;;;13.57;nan;101025.63;5068797;28;20447;-89
2023/11/08 06:59:33;;;;;;;;;;;;;;;13.64;nan;101032.66;5067604;28;19916;-89
2023/11/08 07:01:58;;;;;;;;;;;;;;;13.64;nan;101029.94;5068314;28;19927;-89
2023/11/08 07:04:23;;;;;;;;;;;;;;;13.69;nan;101027.31;5068167;28;19919;-90
2023/11/08 07:06:49;;;;;;;;;;;;;;;13.72;nan;101035.66;5070903;28;19916;-89
2023/11/08 07:09:15;;;;;;;;;;;;;;;13.78;nan;101047.25;5072946;28;19938;-89
2023/11/08 07:11:40;;;;;;;;;;;;;;;13.81;nan;101038.66;5074686;28;20372;-88
2023/11/08 07:14:05;;;;;;;;;;;;;;;13.86;nan;101038.69;5071872;28;19927;-89
2023/11/08 07:16:31;;;;;;;;;;;;;;;13.86;nan;101038.69;5074303;28;20395;-90
2023/11/08 07:18:56;;;;;;;;;;;;;;;13.90;nan;101032.53;5073070;28;19920;-89
2023/11/08 07:21:22;;;;;;;;;;;;;;;13.92;nan;101043.03;5075372;28;19917;-89
2023/11/08 07:23:47;;;;;;;;;;;;;;;14.00;nan;101036.31;5072890;28;19924;-89
2023/11/08 07:26:15;;;;;;;;;;;;;;;14.02;nan;101035.00;5069959;28;19930;-89
2023/11/08 07:28:41;;;;;;;;;;;;;;;14.11;nan;101046.88;5068424;28;19928;-90
2023/11/08 07:31:08;;;;;;;;;;;;;;;14.13;nan;101042.03;5071852;28;19920;-88
2023/11/08 07:33:34;;;;;;;;;;;;;;;14.19;nan;101046.38;5070891;28;19926;-89
2023/11/08 07:36:00;;;;;;;;;;;;;;;14.24;nan;101042.06;5076052;28;19917;-89
2023/11/08 07:38:25;;;;;;;;;;;;;;;14.32;nan;101057.72;5069446;28;20407;-90
2023/11/08 07:40:51;;;;;;;;;;;;;;;14.32;nan;101050.44;5073776;28;19918;-88
2023/11/08 07:43:16;;;;;;;;;;;;;;;14.37;nan;101063.16;5075458;28;19919;-88
2023/11/08 07:45:42;;;;;;;;;;;;;;;14.42;nan;101060.44;5068031;28;20145;-89
2023/11/08 07:48:07;;;;;;;;;;;;;;;14.43;nan;101054.00;5069915;28;19924;-89
2023/11/08 07:50:34;;;;;;;;;;;;;;;14.53;nan;101059.41;5067476;28;19917;-89
2023/11/08 07:52:59;;;;;;;;;;;;;;;14.60;nan;101070.78;5072067;28;20400;-89
2023/11/08 07:55:25;;;;;;;;;;;;;;;14.66;nan;101066.19;5068037;28;19947;-89
2023/11/08 07:57:50;;;;;;;;;;;;;;;14.73;nan;101064.88;5068133;28;20628;-89
2023/11/08 08:00:18;;;;;;;;;;;;;;;14.85;nan;101067.28;5070107;28;19952;-89
2023/11/08 08:02:43;;;;;;;;;;;;;;;14.95;nan;101067.31;5072008;28;19920;-89
2023/11/08 08:05:09;;;;;;;;;;;;;;;14.97;nan;101064.34;5070984;28;19943;-89
2023/11/08 08:07:34;;;;;;;;;;;;;;;15.00;nan;101061.09;5065706;28;20368;-89
2023/11/08 08:10:00;;;;;;;;;;;;;;;15.09;nan;101064.91;5071008;28;20390;-88
2023/11/08 08:12:25;;;;;;;;;;;;;;;15.13;nan;101057.88;5066529;28;19924;-89
2023/11/08 08:14:51;;;;;;;;;;;;;;;15.13;nan;101067.84;5067528;28;19916;-89
2023/11/08 08:17:19;;;;;;;;;;;;;;;15.09;nan;101062.19;5070520;28;19970;-88
2023/11/08 08:19:45;;;;;;;;;;;;;;;15.10;nan;101066.50;5063988;28;19928;-89
2023/11/08 08:22:10;;;;;;;;;;;;;;;15.13;nan;101068.66;5068992;28;19925;-89
2023/11/08 08:24:35;;;;;;;;;;;;;;;15.15;nan;101076.50;5068558;28;20503;-89
2023/11/08 08:27:01;;;;;;;;;;;;;;;15.11;nan;101076.22;5068523;28;19974;-88
2023/11/08 08:29:27;;;;;;;;;;;;;;;15.17;nan;101068.94;5071639;28;19916;-88
2023/11/08 08:31:53;;;;;;;;;;;;;;;15.21;nan;101078.91;5065749;28;19928;-89
2023/11/08 08:34:18;;;;;;;;;;;;;;;15.15;nan;101082.69;5067915;28;19924;-89
2023/11/08 08:36:44;;;;;;;;;;;;;;;15.15;nan;101077.28;5068271;28;19920;-87
2023/11/08 08:39:09;;;;;;;;;;;;;;;15.21;nan;101083.50;5070417;28;19917;-88
2023/11/08 08:41:36;;;;;;;;;;;;;;;15.27;nan;101079.72;5066474;28;20147;-88
2023/11/08 08:44:03;;;;;;;;;;;;;;;15.33;nan;101078.63;5065403;28;20025;-87
2023/11/08 08:46:29;;;;;;;;;;;;;;;15.30;nan;101088.09;5068778;28;20388;-88
2023/11/08 08:48:55;;;;;;;;;;;;;;;15.38;nan;101078.63;5066470;28;19956;-88
2023/11/08 08:51:20;;;;;;;;;;;;;;;15.42;nan;101080.50;5065961;28;20398;-88
2023/11/08 08:53:45;;;;;;;;;;;;;;;15.46;nan;101082.69;5068101;28;19924;-88
2023/11/08 08:56:11;;;;;;;;;;;;;;;15.43;nan;101084.81;5070105;28;19916;-88
2023/11/08 08:58:37;;;;;;;;;;;;;;;15.50;nan;101075.66;5065492;28;21237;-87
2023/11/08 09:01:04;;;;;;;;;;;;;;;15.49;nan;101080.25;5067589;28;20452;-88
2023/11/08 09:03:29;;;;;;;;;;;;;;;15.57;nan;101087.78;5065708;28;19916;-89
2023/11/08 09:05:55;;;;;;;;;;;;;;;15.54;nan;101087.53;5067743;28;19920;-87
2023/11/08 09:08:20;;;;;;;;;;;;;;;15.54;nan;101095.63;5067777;28;19948;-88
2023/11/08 09:10:46;;;;;;;;;;;;;;;15.49;nan;101093.75;5067921;28;19923;-89
2023/11/08 09:13:13;;;;;;;;;;;;;;;15.55;nan;101083.72;5073657;28;20102;-89
2023/11/08 09:15:38;;;;;;;;;;;;;;;15.65;nan;101095.38;5068899;28;19930;-89
2023/11/08 09:18:04;;;;;;;;;;;;;;;15.65;nan;101089.16;5067187;28;20012;-87
2023/11/08 09:20:29;;;;;;;;;;;;;;;15.67;nan;101106.72;5070079;28;19917;-89
2023/11/08 09:22:56;;;;;;;;;;;;;;;15.69;nan;101096.44;5065245;28;19960;-88
2023/11/08 09:25:21;;;;;;;;;;;;;;;15.71;nan;101093.47;5063994;28;19920;-88
2023/11/08 09:27:46;;;;;;;;;;;;;;;15.78;nan;101104.78;5071376;28;19921;-88
2023/11/08 09:30:12;;;;;;;;;;;;;;;15.79;nan;101095.59;5064736;28;19913;-89
2023/11/08 09:32:37;;;;;;;;;;;;;;;15.91;nan;101100.69;5061645;28;19976;-89
2023/11/08 09:35:03;;;;;;;;;;;;;;;15.96;nan;101093.38;5061538;28;19916;-89
2023/11/08 09:37:28;;;;;;;;;;;;;;;16.00;nan;101099.88;5065874;28;20027;-88
2023/11/08 09:39:56;;;;;;;;;;;;;;;16.08;nan;101106.59;5063443;28;19923;-88
2023/11/08 09:42:23;;;;;;;;;;;;;;;16.11;nan;101108.72;5070373;28;19924;-88
2023/11/08 09:44:48;;;;;;;;;;;;;;;16.10;nan;101111.72;5068068;28;19927;-88
2023/11/08 09:47:14;;;;;;;;;;;;;;;16.13;nan;101101.16;5067597;28;19916;-88
2023/11/08 09:49:40;;;;;;;;;;;;;;;16.14;nan;101105.47;5065088;28;20486;-88
2023/11/08 09:52:06;;;;;;;;;;;;;;;16.22;nan;101098.72;5071042;28;20470;-87
2023/11/08 09:54:31;;;;;;;;;;;;;;;16.28;nan;101103.81;5068577;28;19927;-88
2023/11/08 09:56:58;;;;;;;;;;;;;;;16.33;nan;101100.25;5070205;28;20079;-88
2023/11/08 09:59:27;;;;;;;;;;;;;;;16.38;nan;101102.97;5068021;28;19924;-89
2023/11/08 10:01:54;;;;;;;;;;;;;;;16.45;nan;101100.75;5080976;28;19923;-89
2023/11/08 10:04:21;;;;;;;;;;;;;;;16.41;nan;101105.09;5066640;28;20023;-88
2023/11/08 10:06:47;;;;;;;;;;;;;;;16.40;nan;101102.69;5061696;28;19920;-89
2023/11/08 10:09:13;;;;;;;;;;;;;;;16.45;nan;101091.81;5065725;28;19916;-89
2023/11/08 10:11:47;;;;;;;;;;;;;;;16.58;nan;101108.25;5067395;28;19927;-89
2023/11/08 10:14:29;;;;;;;;;;;;;;;16.62;nan;101097.69;5065684;28;19925;-87
2023/11/08 10:16:54;;;;;;;;;;;;;;;16.72;nan;101096.84;5071231;28;19995;-87
2023/11/08 10:19:20;;;;;;;;;;;;;;;16.74;nan;101089.25;5064000;28;19942;-87
2023/11/08 10:21:47;;;;;;;;;;;;;;;16.79;nan;101090.03;5065958;28;19960;-88
2023/11/08 10:24:15;;;;;;;;;;;;;;;16.80;nan;101091.66;5067557;28;20030;-87
2023/11/08 10:26:42;;;;;;;;;;;;;;;16.73;nan;101090.34;5064244;28;20066;-87
2023/11/08 10:29:07;;;;;;;;;;;;;;;16.66;nan;101093.31;5067048;28;19920;-88
2023/11/08 10:31:37;;;;;;;;;;;;;;;16.70;nan;101099.84;5063165;28;20354;-87
2023/11/08 10:34:03;;;;;;;;;;;;;;;16.78;nan;101099.25;5063267;28;19920;-89
2023/11/08 10:36:29;;;;;;;;;;;;;;;16.80;nan;101091.66;5072027;28;19985;-89
2023/11/08 10:38:55;;;;;;;;;;;;;;;16.86;nan;101100.53;5072268;28;19916;-89
2023/11/08 10:41:20;;;;;;;;;;;;;;;16.92;nan;101104.84;5066842;28;19921;-88
2023/11/08 10:43:46;;;;;;;;;;;;;;;16.89;nan;101100.00;5069965;28;19920;-89
2023/11/08 10:46:11;;;;;;;;;;;;;;;16.78;nan;101101.94;5074842;28;20380;-89
2023/11/08 10:48:37;;;;;;;;;;;;;;;16.79;nan;101095.44;5070593;28;19921;-89
2023/11/08 10:51:04;;;;;;;;;;;;;;;16.79;nan;101097.34;5067109;28;19924;-89
2023/11/08 10:53:29;;;;;;;;;;;;;;;16.87;nan;101094.03;5069166;28;20035;-89
2023/11/08 10:55:59;;;;;;;;;;;;;;;16.84;nan;101097.28;5071583;28;19920;-88
2023/11/08 10:58:27;;;;;;;;;;;;;;;16.90;nan;101096.19;5075484;28;20415;-89
2023/11/08 11:00:54;;;;;;;;;;;;;;;16.93;nan;101095.63;5083740;28;19916;-88
2023/11/08 11:03:19;;;;;;;;;;;;;;;16.95;nan;101108.88;5066726;28;19924;-87
2023/11/08 11:05:48;;;;;;;;;;;;;;;16.95;nan;101095.34;5068221;28;19916;-89
2023/11/08 11:08:18;;;;;;;;;;;;;;;16.97;nan;101101.28;5070103;28;19956;-87
2023/11/08 11:10:44;;;;;;;;;;;;;;;16.96;nan;101099.66;5070047;28;19920;-88
2023/11/08 11:13:27;;;;;;;;;;;;;;;16.97;nan;101101.28;5072993;28;19928;-89
2023/11/08 11:16:18;;;;;;;;;;;;;;;16.92;nan;101107.53;5066511;28;19931;-89
2023/11/08 11:18:45;;;;;;;;;;;;;;;16.99;nan;101104.50;5067286;28;20460;-87
2023/11/08 11:21:19;;;;;;;;;;;;;;;17.06;nan;101100.41;5071878;28;19962;-89
2023/11/08 11:23:45;;;;;;;;;;;;;;;17.17;nan;101099.22;5071477;28;20540;-90
2023/11/08 11:26:11;;;;;;;;;;;;;;;17.30;nan;101107.78;5073098;28;19917;-88
2023/11/08 11:28:52;;;;;;;;;;;;;;;17.41;nan;101098.47;5070795;28;19923;-88
2023/11/08 11:31:32;;;;;;;;;;;;;;;17.53;nan;101107.84;5069946;28;19962;-88
2023/11/08 11:33:58;;;;;;;;;;;;;;;17.53;nan;101105.13;5065310;28;19924;-88
2023/11/08 11:36:23;;;;;;;;;;;;;;;17.52;nan;101103.50;5069822;28;19920;-88
2023/11/08 11:39:07;;;;;;;;;;;;;;;17.50;nan;101107.59;5073168;28;20388;-88
2023/11/08 11:41:33;;;;;;;;;;;;;;;17.50;nan;101110.31;5070014;28;19917;-89
2023/11/08 11:43:59;;;;;;;;;;;;;;;17.53;nan;101110.53;5074449;28;20568;-88
2023/11/08 11:46:24;;;;;;;;;;;;;;;17.53;nan;101115.97;5074347;28;19924;-88
2023/11/08 11:49:03;;;;;;;;;;;;;;;17.49;nan;101111.41;5069340;28;19917;-89
2023/11/08 11:51:28;;;;;;;;;;;;;;;17.44;nan;101108.75;5069900;28;19920;-88
2023/11/08 11:53:53;;;;;;;;;;;;;;;17.50;nan;101113.03;5066435;28;19993;-88
2023/11/08 11:56:19;;;;;;;;;;;;;;;17.47;nan;101110.88;5063750;28;20025;-87
2023/11/08 11:58:44;;;;;;;;;;;;;;;17.47;nan;101111.69;5071840;28;20039;-88
2023/11/08 12:01:09;;;;;;;;;;;;;;;17.40;nan;101121.22;5073317;28;20045;-88
2023/11/08 12:03:35;;;;;;;;;;;;;;;17.42;nan;101114.47;5065659;28;19958;-88
2023/11/08 12:06:01;;;;;;;;;;;;;;;17.48;nan;101110.59;5086007;28;19924;-89
2023/11/08 12:08:27;;;;;;;;;;;;;;;17.58;nan;101106.97;5065860;28;19917;-88
2023/11/08 12:11:12;;;;;;;;;;;;;;;17.60;nan;101114.84;5065478;28;20490;-88
2023/11/08 12:13:51;;;;;;;;;;;;;;;17.51;nan;101117.34;5067087;28;20140;-88
2023/11/08 12:16:16;;;;;;;;;;;;;;;17.45;nan;101105.75;5065346;28;20160;-88
2023/11/08 12:18:44;;;;;;;;;;;;;;;17.48;nan;101117.91;5063168;28;20818;-88
2023/11/08 12:21:11;;;;;;;;;;;;;;;17.51;nan;101118.16;5062801;28;20039;-89
2023/11/08 12:23:37;;;;;;;;;;;;;;;17.50;nan;101110.31;5063305;28;19998;-88
2023/11/08 12:26:02;;;;;;;;;;;;;;;17.46;nan;101114.69;5065019;28;20456;-89
2023/11/08 12:28:29;;;;;;;;;;;;;;;17.41;nan;101118.22;5065741;28;19923;-88
2023/11/08 12:31:05;;;;;;;;;;;;;;;17.38;nan;101120.72;5060985;28;19927;-89
2023/11/08 12:33:31;;;;;;;;;;;;;;;17.36;nan;101126.41;5063131;28;19978;-88
2023/11/08 12:35:58;;;;;;;;;;;;;;;17.38;nan;101126.13;5068883;28;19923;-87
2023/11/08 12:38:24;;;;;;;;;;;;;;;17.31;nan;101120.22;5063091;28;20392;-88
2023/11/08 12:41:02;;;;;;;;;;;;;;;17.36;nan;101118.28;5066930;28;19946;-89
2023/11/08 12:43:27;;;;;;;;;;;;;;;17.32;nan;101129.97;5062556;28;19920;-88
2023/11/08 12:46:04;;;;;;;;;;;;;;;17.39;nan;101125.84;5065275;28;19916;-88
2023/11/08 12:48:30;;;;;;;;;;;;;;;17.45;nan;101124.72;5061701;28;19943;-89
2023/11/08 12:51:00;;;;;;;;;;;;;;;17.55;nan;101129.22;5063839;28;20316;-88
2023/11/08 12:53:25;;;;;;;;;;;;;;;17.66;nan;101124.53;5085079;28;19932;-88